Time;durP1;ratioP1;P1;durP2;ratioP2;P2;SDS_P1;SDS_P2;PMS_P1;PMS_P2;Temp;Humidity;BMP_temperature;BMP_pressure;BME280_temperature;BME280_humidity;BME280_pressure;Samples;Min_cycle;Max_cycle;Signal;HPM_P1;HPM_P2
2022/04/07 00:01:36;;;;;;;1.60;1.50;;;10.20;99.90;;;;;;4972288;28;20203;-71
2022/04/07 00:04:02;;;;;;;1.10;1.10;;;10.10;99.90;;;;;;4972492;28;20556;-71
2022/04/07 00:06:27;;;;;;;1.67;1.17;;;10.10;99.90;;;;;;4972461;28;20667;-72
2022/04/07 00:08:53;;;;;;;3.63;1.30;;;10.00;99.90;;;;;;4973335;28;20186;-71
2022/04/07 00:11:18;;;;;;;1.93;1.30;;;9.90;99.90;;;;;;4975810;28;20225;-71
2022/04/07 00:13:44;;;;;;;1.37;1.27;;;9.90;99.90;;;;;;4976323;28;20200;-72
2022/04/07 00:16:10;;;;;;;1.77;1.40;;;9.90;99.90;;;;;;4976056;28;20178;-73
2022/04/07 00:18:35;;;;;;;1.40;1.30;;;9.80;99.90;;;;;;4976143;28;20178;-71
2022/04/07 00:21:02;;;;;;;1.37;1.27;;;9.80;99.90;;;;;;4975735;28;20233;-71
2022/04/07 00:23:28;;;;;;;1.03;1.00;;;9.70;99.90;;;;;;4975901;28;20177;-72
2022/04/07 00:25:53;;;;;;;1.43;1.30;;;9.60;99.90;;;;;;4976119;28;20428;-72
2022/04/07 00:28:19;;;;;;;1.53;1.43;;;9.60;99.90;;;;;;4975712;28;20214;-72
2022/04/07 00:30:44;;;;;;;1.20;1.10;;;9.60;99.90;;;;;;4975601;28;20207;-72
2022/04/07 00:33:10;;;;;;;1.57;1.10;;;9.50;99.90;;;;;;4975627;28;20195;-72
2022/04/07 00:35:36;;;;;;;1.70;1.20;;;9.60;99.90;;;;;;4975920;28;20171;-73
2022/04/07 00:38:03;;;;;;;1.60;1.20;;;9.60;99.90;;;;;;4975633;28;20423;-72
2022/04/07 00:40:29;;;;;;;1.73;1.37;;;9.60;99.90;;;;;;4975420;28;20959;-69
2022/04/07 00:42:55;;;;;;;0.90;0.90;;;9.70;99.90;;;;;;4975707;28;20477;-71
2022/04/07 00:45:22;;;;;;;1.03;0.80;;;9.70;99.90;;;;;;4975444;28;20204;-71
2022/04/07 00:47:49;;;;;;;1.00;0.83;;;9.80;99.90;;;;;;4975801;28;20694;-73
2022/04/07 00:50:16;;;;;;;1.90;0.80;;;9.80;99.90;;;;;;4975580;28;20552;-72
2022/04/07 00:52:44;;;;;;;0.80;0.80;;;9.80;99.90;;;;;;4975355;28;20949;-72
2022/04/07 00:55:12;;;;;;;0.90;0.80;;;9.80;99.90;;;;;;4975439;28;20413;-72
2022/04/07 00:57:41;;;;;;;0.80;0.80;;;9.90;99.90;;;;;;4975598;28;20420;-72
2022/04/07 02:33:15;;;;;;;1.20;0.67;;;9.60;99.90;;;;;;4946238;28;20858;-71
2022/04/07 02:35:41;;;;;;;0.70;0.67;;;9.60;99.90;;;;;;4953628;29;20409;-70
2022/04/07 02:38:07;;;;;;;0.60;0.50;;;9.60;99.90;;;;;;4952305;28;20460;-69
2022/04/07 02:40:32;;;;;;;0.60;0.50;;;9.60;99.90;;;;;;4953540;28;20944;-72
2022/04/07 02:42:58;;;;;;;1.27;0.50;;;9.60;99.90;;;;;;4935171;29;20185;-72
2022/04/07 02:45:24;;;;;;;0.90;0.60;;;9.70;99.90;;;;;;4935084;29;20181;-71
2022/04/07 02:47:49;;;;;;;0.60;0.60;;;9.70;99.90;;;;;;4935334;29;20189;-72
2022/04/07 02:50:16;;;;;;;3.20;0.60;;;9.70;99.90;;;;;;4934760;29;20257;-72
2022/04/07 02:52:42;;;;;;;0.90;0.60;;;9.70;99.90;;;;;;4934859;29;20202;-72
2022/04/07 02:55:09;;;;;;;2.00;0.70;;;9.70;99.90;;;;;;4935143;29;20414;-71
2022/04/07 02:57:34;;;;;;;1.33;0.67;;;9.60;99.90;;;;;;4935165;29;20940;-72
2022/04/07 03:00:00;;;;;;;1.40;0.70;;;9.60;99.90;;;;;;4935307;29;20419;-72
2022/04/07 03:02:28;;;;;;;0.70;0.50;;;9.60;99.90;;;;;;4934451;29;20238;-72
2022/04/07 03:04:54;;;;;;;1.53;0.60;;;9.60;99.90;;;;;;4934395;29;20193;-72
2022/04/07 03:07:19;;;;;;;0.70;0.70;;;9.50;99.90;;;;;;4934893;29;20430;-71
2022/04/07 03:09:45;;;;;;;0.63;0.50;;;9.50;99.90;;;;;;4934676;29;20181;-72
2022/04/07 03:12:13;;;;;;;0.70;0.70;;;9.40;99.90;;;;;;4933116;29;20245;-71
2022/04/07 03:14:39;;;;;;;0.70;0.60;;;9.40;99.90;;;;;;4934946;29;20184;-72
2022/04/07 03:17:04;;;;;;;0.50;0.50;;;9.40;99.90;;;;;;4934753;29;20506;-72
2022/04/07 03:19:30;;;;;;;0.60;0.60;;;9.30;99.90;;;;;;4934622;29;20479;-71
2022/04/07 03:21:57;;;;;;;0.77;0.67;;;9.30;99.90;;;;;;4934690;29;20203;-72
2022/04/07 03:24:24;;;;;;;1.67;0.60;;;9.20;99.90;;;;;;4934723;29;20173;-72
2022/04/07 03:26:50;;;;;;;0.80;0.80;;;9.20;99.90;;;;;;4934824;29;21009;-72
2022/04/07 03:29:16;;;;;;;0.70;0.70;;;9.20;99.90;;;;;;4934549;29;20462;-72
2022/04/07 03:31:41;;;;;;;0.67;0.50;;;9.20;99.90;;;;;;4934006;29;20476;-72
2022/04/07 03:34:07;;;;;;;0.60;0.60;;;9.20;99.90;;;;;;4934582;29;20423;-72
2022/04/07 03:36:32;;;;;;;0.67;0.67;;;9.20;99.90;;;;;;4932950;29;20636;-72
2022/04/07 03:38:58;;;;;;;2.00;0.80;;;9.20;99.90;;;;;;4934842;29;20206;-72
2022/04/07 03:41:23;;;;;;;1.80;0.77;;;9.30;99.90;;;;;;4934014;29;20198;-71
2022/04/07 03:43:49;;;;;;;0.70;0.70;;;9.30;99.90;;;;;;4936177;29;20186;-72
2022/04/07 03:46:16;;;;;;;0.70;0.60;;;9.40;99.90;;;;;;4940832;29;20187;-72
2022/04/07 03:48:42;;;;;;;0.60;0.60;;;9.50;99.90;;;;;;4940794;29;20175;-71
2022/04/07 03:51:07;;;;;;;1.53;0.83;;;9.40;99.90;;;;;;4940574;29;20526;-72
2022/04/07 03:53:33;;;;;;;1.63;0.67;;;9.40;99.90;;;;;;4940623;29;20227;-72
2022/04/07 03:55:58;;;;;;;0.90;0.60;;;9.40;99.90;;;;;;4940802;29;20322;-72
2022/04/07 03:58:26;;;;;;;1.07;0.70;;;9.40;99.90;;;;;;4940405;29;20213;-72
2022/04/07 04:00:52;;;;;;;0.87;0.70;;;9.40;99.90;;;;;;4940303;29;20225;-72
2022/04/07 04:03:18;;;;;;;2.60;0.53;;;9.40;99.90;;;;;;4940341;29;20581;-72
2022/04/07 04:05:44;;;;;;;0.70;0.60;;;9.50;99.90;;;;;;4940700;29;20453;-72
2022/04/07 04:08:09;;;;;;;1.87;0.80;;;9.50;99.90;;;;;;4940663;29;20591;-71
2022/04/07 04:10:35;;;;;;;0.63;0.63;;;9.50;99.90;;;;;;4939993;29;20477;-70
2022/04/07 04:13:00;;;;;;;2.00;0.60;;;9.50;99.90;;;;;;4940491;29;20289;-72
2022/04/07 04:15:26;;;;;;;1.33;0.57;;;9.50;99.90;;;;;;4940476;29;20549;-71
2022/04/07 04:17:51;;;;;;;2.10;0.50;;;9.50;99.90;;;;;;4940335;29;20184;-72
2022/04/07 04:20:17;;;;;;;0.80;0.80;;;9.50;99.90;;;;;;4940302;29;20192;-72
2022/04/07 04:22:42;;;;;;;0.60;0.60;;;9.40;99.90;;;;;;4940218;29;20209;-71
2022/04/07 04:25:08;;;;;;;1.00;0.63;;;9.40;99.90;;;;;;4940564;29;20188;-72
2022/04/07 04:27:34;;;;;;;0.67;0.67;;;9.40;99.90;;;;;;4940343;29;20189;-72
2022/04/07 04:30:00;;;;;;;1.23;0.70;;;9.30;99.90;;;;;;4940397;29;20967;-72
2022/04/07 04:32:25;;;;;;;1.67;0.63;;;9.30;99.90;;;;;;4940192;29;20290;-72
2022/04/07 04:34:51;;;;;;;2.10;0.80;;;9.30;99.90;;;;;;4940545;29;20187;-72
2022/04/07 04:37:16;;;;;;;1.37;0.80;;;9.30;99.90;;;;;;4940259;29;20633;-71
2022/04/07 04:39:42;;;;;;;1.70;0.83;;;9.30;99.90;;;;;;4940240;29;20548;-71
2022/04/07 04:42:08;;;;;;;1.23;0.70;;;9.40;99.90;;;;;;4940096;29;20216;-71
2022/04/07 04:44:34;;;;;;;1.80;0.80;;;9.40;99.90;;;;;;4940077;29;20845;-72
2022/04/07 04:46:59;;;;;;;0.70;0.70;;;9.50;99.90;;;;;;4940311;29;20268;-70
2022/04/07 04:49:25;;;;;;;0.90;0.73;;;9.60;99.90;;;;;;4940236;29;20184;-71
2022/04/07 04:51:51;;;;;;;0.80;0.80;;;9.60;99.90;;;;;;4940146;29;20235;-71
2022/04/07 04:54:16;;;;;;;1.13;0.73;;;9.60;99.90;;;;;;4940173;29;20829;-71
2022/04/07 04:56:42;;;;;;;1.20;0.77;;;9.60;99.90;;;;;;4936793;29;20268;-71
2022/04/07 04:59:08;;;;;;;0.60;0.50;;;9.60;99.90;;;;;;4935841;29;20284;-72
2022/04/07 05:01:33;;;;;;;0.60;0.53;;;9.70;99.90;;;;;;4936618;29;20211;-72
2022/04/07 05:03:59;;;;;;;2.27;0.70;;;9.70;99.90;;;;;;4937729;29;20360;-72
2022/04/07 05:06:25;;;;;;;0.50;0.50;;;9.80;99.90;;;;;;4937199;29;20646;-72
2022/04/07 05:08:50;;;;;;;0.90;0.90;;;9.80;99.90;;;;;;4936861;29;20205;-72
2022/04/07 05:11:15;;;;;;;8.60;1.10;;;9.80;99.90;;;;;;4936250;29;20687;-72
2022/04/07 05:13:41;;;;;;;2.60;0.93;;;9.80;99.90;;;;;;4936609;29;20216;-72
2022/04/07 05:16:15;;;;;;;2.10;0.70;;;9.70;99.90;;;;;;4936696;29;20187;-72
2022/04/07 05:18:46;;;;;;;1.03;0.70;;;9.70;99.90;;;;;;4936553;29;20595;-72
2022/04/07 05:21:13;;;;;;;0.70;0.70;;;9.60;99.90;;;;;;4936280;29;20461;-72
2022/04/07 05:23:38;;;;;;;0.90;0.70;;;9.60;99.90;;;;;;4936515;29;20564;-71
2022/04/07 05:26:04;;;;;;;1.00;0.67;;;9.60;99.90;;;;;;4936484;29;20416;-72
2022/04/07 05:28:29;;;;;;;0.90;0.70;;;9.60;99.90;;;;;;4936242;29;20668;-72
2022/04/07 05:30:56;;;;;;;0.60;0.60;;;9.60;99.90;;;;;;4936144;29;20220;-72
2022/04/07 05:33:21;;;;;;;0.90;0.57;;;9.60;99.90;;;;;;4935999;29;20174;-72
2022/04/07 05:35:47;;;;;;;1.43;0.70;;;9.60;99.90;;;;;;4936333;29;20804;-72
2022/04/07 05:38:13;;;;;;;0.63;0.63;;;9.60;99.90;;;;;;4936128;29;20170;-72
2022/04/07 05:40:38;;;;;;;0.90;0.60;;;9.70;99.90;;;;;;4935773;29;20441;-71
2022/04/07 05:43:05;;;;;;;0.50;0.50;;;9.80;99.90;;;;;;4936022;29;20641;-72
2022/04/07 05:45:31;;;;;;;0.67;0.67;;;9.80;99.90;;;;;;4935978;29;20552;-73
2022/04/07 05:47:56;;;;;;;0.60;0.60;;;9.80;99.90;;;;;;4935876;29;20517;-73
2022/04/07 05:50:22;;;;;;;0.67;0.50;;;9.90;99.90;;;;;;4935786;29;20204;-72
2022/04/07 05:52:47;;;;;;;0.50;0.50;;;9.90;99.90;;;;;;4934551;29;20213;-72
2022/04/07 05:55:13;;;;;;;0.67;0.50;;;9.90;99.90;;;;;;4935992;29;20188;-72
2022/04/07 05:57:38;;;;;;;1.37;0.60;;;10.10;99.90;;;;;;4935691;29;20192;-72
2022/04/07 06:00:12;;;;;;;0.60;0.50;;;10.30;99.90;;;;;;4935962;29;20233;-72
2022/04/07 06:02:41;;;;;;;0.40;0.40;;;10.80;99.90;;;;;;4935366;29;20299;-73
2022/04/07 06:05:08;;;;;;;0.67;0.43;;;11.10;99.90;;;;;;4935862;29;20496;-72
2022/04/07 06:07:34;;;;;;;0.50;0.50;;;11.30;99.90;;;;;;4935261;29;20568;-72
2022/04/07 06:09:59;;;;;;;1.23;0.40;;;11.40;99.90;;;;;;4935652;29;20467;-72
2022/04/07 06:12:25;;;;;;;0.40;0.40;;;11.50;99.90;;;;;;4935180;29;20532;-72
2022/04/07 06:14:50;;;;;;;0.50;0.40;;;11.40;99.90;;;;;;4935683;29;20222;-72
2022/04/07 06:17:16;;;;;;;1.50;0.50;;;11.40;99.90;;;;;;4935455;29;20192;-73
2022/04/07 06:19:41;;;;;;;0.90;0.40;;;11.40;99.90;;;;;;4935432;29;20189;-72
2022/04/07 06:22:07;;;;;;;2.57;0.80;;;11.30;99.90;;;;;;4935139;29;20238;-72
2022/04/07 06:24:34;;;;;;;0.73;0.60;;;11.20;99.90;;;;;;4935236;29;20658;-73
2022/04/07 06:27:00;;;;;;;0.40;0.40;;;11.10;99.90;;;;;;4935429;29;20181;-73
2022/04/07 06:29:25;;;;;;;0.50;0.40;;;11.10;99.90;;;;;;4935224;29;20491;-72
2022/04/07 06:31:51;;;;;;;2.13;0.50;;;11.10;99.90;;;;;;4934795;29;20558;-73
2022/04/07 06:34:18;;;;;;;0.50;0.50;;;11.00;99.90;;;;;;4935108;29;20177;-72
2022/04/07 06:36:43;;;;;;;0.40;0.40;;;11.10;99.90;;;;;;4935134;29;20428;-73
2022/04/07 06:39:09;;;;;;;0.60;0.50;;;11.10;99.90;;;;;;4935405;29;20215;-73
2022/04/07 06:41:34;;;;;;;0.50;0.43;;;11.00;99.90;;;;;;4934647;29;20204;-72
2022/04/07 06:44:00;;;;;;;0.50;0.50;;;11.00;99.90;;;;;;4935162;29;20179;-72
2022/04/07 06:46:25;;;;;;;0.50;0.50;;;11.00;99.90;;;;;;4935056;29;20182;-73
2022/04/07 06:48:51;;;;;;;0.70;0.40;;;11.00;99.90;;;;;;4934972;29;20672;-73
2022/04/07 06:51:17;;;;;;;1.03;0.40;;;11.00;99.90;;;;;;4934379;29;20215;-73
2022/04/07 06:53:43;;;;;;;0.80;0.30;;;11.00;99.90;;;;;;4934906;29;20428;-73
2022/04/07 06:56:10;;;;;;;11.93;0.73;;;11.00;99.90;;;;;;4934925;29;20207;-72
2022/04/07 06:58:35;;;;;;;3.47;0.60;;;10.90;99.90;;;;;;4934718;29;20317;-72
2022/04/07 07:01:01;;;;;;;0.63;0.40;;;10.90;99.90;;;;;;4934414;29;20676;-73
2022/04/07 07:03:28;;;;;;;0.40;0.40;;;11.00;99.90;;;;;;4934662;29;20462;-72
2022/04/07 07:05:58;;;;;;;1.13;0.40;;;11.00;99.90;;;;;;4934689;29;20425;-72
2022/04/07 07:08:24;;;;;;;0.63;0.50;;;11.10;99.90;;;;;;4934610;29;20572;-73
2022/04/07 07:10:52;;;;;;;0.60;0.50;;;11.10;99.90;;;;;;4934293;29;20472;-73
2022/04/07 07:13:23;;;;;;;1.07;0.50;;;11.30;99.90;;;;;;4934482;29;20415;-72
2022/04/07 07:15:49;;;;;;;0.47;0.40;;;11.30;99.90;;;;;;4934770;29;20420;-72
2022/04/07 07:18:15;;;;;;;0.80;0.50;;;11.40;99.90;;;;;;4934628;29;20418;-72
2022/04/07 07:20:41;;;;;;;0.43;0.40;;;11.40;99.90;;;;;;4934163;29;20424;-72
2022/04/07 07:23:07;;;;;;;0.60;0.50;;;11.40;99.90;;;;;;4934457;29;20418;-72
2022/04/07 07:25:34;;;;;;;0.67;0.50;;;11.50;99.90;;;;;;4934328;29;20186;-73
2022/04/07 07:28:00;;;;;;;0.93;0.50;;;11.50;99.90;;;;;;4915698;29;20460;-72
2022/04/07 07:30:27;;;;;;;0.50;0.50;;;11.50;99.90;;;;;;4915020;29;20465;-72
2022/04/07 07:32:54;;;;;;;0.40;0.40;;;11.60;99.90;;;;;;4915028;29;20452;-72
2022/04/07 07:35:20;;;;;;;0.60;0.60;;;11.70;99.90;;;;;;4915466;29;20886;-74
2022/04/07 07:37:50;;;;;;;0.50;0.50;;;11.70;99.90;;;;;;4915486;29;20428;-73
2022/04/07 07:40:16;;;;;;;4.83;0.60;;;11.80;99.90;;;;;;4916573;29;20493;-72
2022/04/07 07:42:42;;;;;;;1.90;0.50;;;11.90;99.90;;;;;;4915529;29;20695;-72
2022/04/07 07:45:08;;;;;;;1.10;0.40;;;12.00;99.90;;;;;;4915453;29;20818;-71
2022/04/07 07:47:34;;;;;;;1.43;0.50;;;12.00;99.90;;;;;;4914406;29;20441;-71
2022/04/07 07:50:00;;;;;;;2.03;0.40;;;12.10;99.90;;;;;;4915103;29;20465;-72
2022/04/07 07:52:26;;;;;;;1.57;0.40;;;12.20;99.90;;;;;;4914630;29;20274;-71
2022/04/07 07:54:51;;;;;;;0.50;0.40;;;12.30;99.90;;;;;;4915125;29;20513;-72
2022/04/07 07:57:19;;;;;;;0.83;0.50;;;12.30;99.90;;;;;;4914581;29;20209;-72
2022/04/07 07:59:44;;;;;;;0.40;0.40;;;12.30;99.90;;;;;;4914841;29;20170;-72
2022/04/07 08:02:09;;;;;;;0.40;0.40;;;12.30;99.90;;;;;;4913857;29;20502;-72
2022/04/07 08:04:35;;;;;;;1.07;0.40;;;12.30;99.90;;;;;;4914988;29;20216;-73
2022/04/07 08:07:01;;;;;;;0.80;0.50;;;12.30;99.90;;;;;;4914656;29;20336;-72
2022/04/07 08:09:26;;;;;;;1.70;0.40;;;12.30;99.90;;;;;;4914638;29;20177;-72
2022/04/07 08:11:52;;;;;;;0.87;0.50;;;12.10;99.90;;;;;;4914596;29;20217;-72
2022/04/07 08:14:17;;;;;;;1.47;0.40;;;12.10;99.90;;;;;;4914808;29;20643;-72
2022/04/07 08:16:43;;;;;;;0.50;0.50;;;12.20;99.90;;;;;;4914662;29;20181;-72
2022/04/07 08:19:11;;;;;;;0.50;0.40;;;12.40;99.90;;;;;;4914742;29;20237;-73
2022/04/07 08:21:37;;;;;;;0.50;0.50;;;12.40;99.90;;;;;;4914289;29;20975;-72
2022/04/07 08:24:04;;;;;;;1.50;0.40;;;12.50;99.90;;;;;;4913633;29;20433;-72
2022/04/07 08:26:29;;;;;;;1.10;0.60;;;12.60;99.90;;;;;;4914651;29;20226;-72
2022/04/07 08:28:55;;;;;;;2.50;0.90;;;12.70;99.90;;;;;;4914391;29;20521;-72
2022/04/07 08:31:20;;;;;;;0.60;0.40;;;12.80;99.90;;;;;;4915577;29;20304;-72
2022/04/07 08:33:46;;;;;;;4.73;0.50;;;12.90;99.90;;;;;;4918378;29;20174;-72
2022/04/07 08:36:12;;;;;;;2.20;0.87;;;12.90;99.90;;;;;;4918158;29;20177;-73
2022/04/07 08:38:38;;;;;;;0.60;0.50;;;12.80;99.90;;;;;;4917633;29;20543;-73
2022/04/07 08:41:08;;;;;;;0.50;0.40;;;12.70;99.90;;;;;;4916607;29;20636;-72
2022/04/07 08:43:34;;;;;;;0.97;0.40;;;12.60;99.90;;;;;;4919577;29;20670;-72
2022/04/07 08:46:02;;;;;;;0.80;0.43;;;12.50;99.90;;;;;;4937222;29;20417;-72
2022/04/07 08:48:29;;;;;;;0.60;0.60;;;12.50;99.90;;;;;;4936509;29;20832;-72
2022/04/07 08:50:55;;;;;;;0.50;0.40;;;12.70;99.90;;;;;;4936694;29;20810;-73
2022/04/07 08:53:20;;;;;;;0.90;0.50;;;12.80;99.90;;;;;;4936782;29;20419;-73
2022/04/07 08:55:46;;;;;;;0.50;0.40;;;12.90;99.90;;;;;;4937064;29;20420;-72
2022/04/07 08:58:17;;;;;;;0.70;0.40;;;12.90;99.90;;;;;;4936429;29;20174;-72
2022/04/07 09:00:43;;;;;;;2.97;0.53;;;12.90;99.90;;;;;;4936708;29;20280;-74
2022/04/07 09:03:08;;;;;;;0.50;0.50;;;12.90;99.90;;;;;;4937049;29;20504;-73
2022/04/07 09:05:34;;;;;;;0.73;0.73;;;12.90;99.90;;;;;;4936579;29;20181;-73
2022/04/07 09:07:59;;;;;;;0.40;0.40;;;12.80;99.90;;;;;;4936259;29;20237;-72
2022/04/07 09:10:25;;;;;;;7.30;0.40;;;12.80;99.90;;;;;;4936325;29;20259;-71
2022/04/07 09:12:52;;;;;;;0.50;0.43;;;12.90;99.90;;;;;;4936457;29;20686;-72
2022/04/07 09:15:18;;;;;;;0.77;0.37;;;12.90;99.90;;;;;;4936434;29;20421;-72
2022/04/07 09:18:00;;;;;;;3.40;0.50;;;13.00;99.90;;;;;;4936745;29;20414;-72
2022/04/07 09:20:26;;;;;;;0.70;0.40;;;13.00;99.90;;;;;;4936075;29;20413;-72
2022/04/07 09:23:01;;;;;;;0.40;0.33;;;13.00;99.90;;;;;;4936264;29;20499;-72
2022/04/07 09:25:27;;;;;;;1.00;0.43;;;13.00;99.90;;;;;;4930687;29;20210;-72
2022/04/07 09:27:57;;;;;;;0.40;0.40;;;13.00;99.90;;;;;;4917124;29;20449;-73
2022/04/07 09:30:23;;;;;;;1.83;0.40;;;13.00;99.90;;;;;;4916116;29;20866;-71
2022/04/07 09:32:49;;;;;;;1.67;0.47;;;12.90;99.90;;;;;;4917302;29;20445;-72
2022/04/07 09:35:15;;;;;;;0.40;0.40;;;12.90;99.90;;;;;;4917397;29;20170;-72
2022/04/07 09:37:42;;;;;;;1.33;0.40;;;12.80;99.90;;;;;;4917335;29;20414;-73
2022/04/07 09:40:09;;;;;;;3.03;0.53;;;12.80;99.90;;;;;;4917099;29;20182;-73
2022/04/07 09:42:35;;;;;;;0.93;0.40;;;12.70;99.90;;;;;;4916304;29;20434;-73
2022/04/07 09:45:02;;;;;;;1.07;0.40;;;12.50;99.90;;;;;;4917253;29;20968;-72
2022/04/07 09:47:42;;;;;;;0.50;0.50;;;12.50;99.90;;;;;;4917297;29;20718;-72
2022/04/07 09:50:19;;;;;;;0.80;0.40;;;12.40;99.90;;;;;;4916859;29;20461;-74
2022/04/07 09:52:55;;;;;;;0.50;0.40;;;12.50;99.90;;;;;;4916869;29;20430;-73
2022/04/07 09:55:26;;;;;;;0.40;0.40;;;12.70;99.90;;;;;;4916800;29;20492;-72
2022/04/07 09:57:53;;;;;;;0.50;0.40;;;13.00;99.90;;;;;;4917406;29;20832;-72
2022/04/07 10:00:19;;;;;;;0.80;0.70;;;13.30;99.90;;;;;;4917132;29;20422;-72
2022/04/07 10:02:45;;;;;;;0.90;0.40;;;13.80;99.90;;;;;;4916484;29;20460;-72
2022/04/07 10:05:11;;;;;;;0.83;0.50;;;13.90;99.90;;;;;;4916859;29;20416;-73
2022/04/07 10:07:38;;;;;;;2.93;0.50;;;13.80;99.90;;;;;;4919762;29;20919;-73
2022/04/07 10:10:03;;;;;;;1.37;0.40;;;13.70;99.90;;;;;;4919989;29;20178;-73
2022/04/07 10:12:32;;;;;;;0.50;0.50;;;13.60;99.90;;;;;;4919240;29;21192;-72
2022/04/07 10:14:58;;;;;;;0.80;0.47;;;13.50;99.90;;;;;;4917815;29;20166;-72
2022/04/07 10:17:24;;;;;;;0.50;0.47;;;13.70;99.90;;;;;;4916199;29;20792;-68
2022/04/07 10:19:54;;;;;;;0.40;0.40;;;13.90;99.90;;;;;;4916531;29;20214;-71
2022/04/07 10:22:38;;;;;;;5.53;0.47;;;14.10;99.90;;;;;;4914792;29;20265;-71
2022/04/07 10:25:05;;;;;;;0.70;0.40;;;14.30;99.90;;;;;;4916412;29;20963;-72
2022/04/07 10:27:40;;;;;;;0.40;0.40;;;14.30;99.90;;;;;;4916156;29;20826;-72
2022/04/07 10:30:10;;;;;;;0.40;0.40;;;14.70;99.90;;;;;;4916365;29;20441;-73
2022/04/07 10:32:40;;;;;;;0.80;0.40;;;14.60;99.90;;;;;;4915818;29;20978;-72
2022/04/07 10:35:07;;;;;;;0.50;0.40;;;14.60;99.90;;;;;;4916290;29;20460;-73
2022/04/07 10:37:44;;;;;;;0.40;0.30;;;14.60;99.90;;;;;;4916061;29;20418;-74
2022/04/07 10:40:32;;;;;;;0.43;0.40;;;14.90;99.90;;;;;;4916126;29;20418;-74
2022/04/07 10:43:13;;;;;;;1.37;0.40;;;15.00;99.90;;;;;;4915959;29;20441;-73
2022/04/07 10:45:42;;;;;;;0.50;0.40;;;15.10;99.90;;;;;;4916150;29;20948;-74
2022/04/07 10:48:31;;;;;;;1.10;0.40;;;15.10;99.90;;;;;;4916058;29;20429;-73
2022/04/07 10:51:02;;;;;;;0.40;0.30;;;14.80;99.90;;;;;;4915691;29;20504;-73
2022/04/07 10:53:36;;;;;;;0.50;0.30;;;14.60;99.90;;;;;;4915211;29;20419;-73
2022/04/07 10:56:13;;;;;;;1.13;0.40;;;14.70;99.90;;;;;;4914693;29;20939;-73
2022/04/07 10:58:54;;;;;;;3.20;0.40;;;14.80;99.90;;;;;;4915824;29;20919;-72
2022/04/07 11:01:29;;;;;;;4.07;1.37;;;14.50;99.90;;;;;;4915673;29;20509;-72
2022/04/07 11:04:19;;;;;;;0.47;0.30;;;14.60;99.90;;;;;;4915816;29;20420;-73
2022/04/07 11:07:08;;;;;;;0.67;0.40;;;14.60;99.90;;;;;;4915855;29;20429;-72
2022/04/07 11:09:46;;;;;;;2.30;0.40;;;14.50;99.90;;;;;;4909230;29;20426;-73
2022/04/07 11:12:17;;;;;;;0.40;0.30;;;14.60;99.90;;;;;;4915573;29;20532;-73
2022/04/07 11:14:47;;;;;;;1.43;0.40;;;15.00;99.90;;;;;;4916097;29;20413;-73
2022/04/07 11:17:25;;;;;;;3.63;0.40;;;15.10;99.90;;;;;;4915676;29;20452;-73
2022/04/07 11:20:18;;;;;;;0.40;0.30;;;15.20;99.90;;;;;;4915595;29;20410;-72
2022/04/07 11:22:56;;;;;;;0.40;0.40;;;15.30;99.90;;;;;;4915150;29;21033;-72
2022/04/07 11:25:28;;;;;;;0.50;0.40;;;15.20;99.90;;;;;;4915328;29;20406;-72
2022/04/07 11:28:06;;;;;;;0.40;0.40;;;15.00;99.90;;;;;;4915417;29;20414;-73
2022/04/07 11:30:50;;;;;;;0.50;0.40;;;14.80;99.90;;;;;;4914961;29;20496;-73
2022/04/07 11:33:18;;;;;;;0.40;0.33;;;14.90;99.90;;;;;;4915245;29;20458;-74
2022/04/07 11:36:04;;;;;;;1.40;0.30;;;14.90;99.90;;;;;;4915359;29;20497;-74
2022/04/07 11:38:47;;;;;;;0.60;0.40;;;14.90;99.90;;;;;;4914991;29;20441;-74
2022/04/07 11:41:18;;;;;;;0.40;0.30;;;14.90;99.90;;;;;;4915043;29;20455;-73
2022/04/07 11:43:47;;;;;;;0.40;0.30;;;14.70;99.90;;;;;;4913963;29;20431;-73
2022/04/07 11:46:25;;;;;;;1.13;0.40;;;14.90;99.90;;;;;;4915298;29;20762;-73
2022/04/07 11:48:51;;;;;;;0.40;0.30;;;15.00;99.90;;;;;;4915323;29;20446;-74
2022/04/07 11:51:17;;;;;;;1.47;0.53;;;15.30;99.90;;;;;;4914749;29;20470;-72
2022/04/07 11:53:52;;;;;;;1.73;0.40;;;15.50;99.90;;;;;;4915093;29;20651;-73
2022/04/07 11:56:25;;;;;;;0.37;0.30;;;15.70;99.90;;;;;;4915137;29;20169;-72
2022/04/07 11:58:57;;;;;;;0.50;0.40;;;16.00;99.90;;;;;;4915187;29;20442;-72
2022/04/07 12:01:23;;;;;;;0.40;0.30;;;16.00;99.90;;;;;;4914612;29;20438;-71
2022/04/07 12:03:53;;;;;;;2.70;0.50;;;15.70;99.90;;;;;;4915095;29;20823;-71
2022/04/07 12:06:30;;;;;;;0.97;0.30;;;15.50;99.90;;;;;;4918131;29;20529;-73
2022/04/07 12:08:56;;;;;;;0.40;0.40;;;15.30;99.90;;;;;;4918908;29;20424;-73
2022/04/07 12:11:23;;;;;;;1.47;0.30;;;15.20;99.90;;;;;;4918358;29;20480;-73
2022/04/07 12:13:53;;;;;;;0.40;0.30;;;15.10;99.90;;;;;;4920009;29;20457;-72
2022/04/07 12:16:22;;;;;;;0.40;0.30;;;15.10;99.90;;;;;;4919196;29;20939;-73
2022/04/07 12:18:55;;;;;;;4.20;0.50;;;15.20;99.90;;;;;;4918711;29;20456;-73
2022/04/07 12:21:25;;;;;;;0.40;0.30;;;15.30;99.90;;;;;;4918220;29;20779;-72
2022/04/07 12:24:09;;;;;;;0.40;0.40;;;15.20;99.90;;;;;;4918629;29;20485;-72
2022/04/07 12:26:45;;;;;;;0.40;0.30;;;15.20;99.90;;;;;;4918423;29;20420;-73
2022/04/07 12:29:31;;;;;;;0.60;0.40;;;15.00;99.90;;;;;;4918563;29;20432;-73
2022/04/07 12:32:05;;;;;;;0.50;0.40;;;15.10;99.90;;;;;;4918163;29;20552;-72
2022/04/07 12:34:31;;;;;;;0.67;0.30;;;15.20;99.90;;;;;;4918402;29;20417;-72
2022/04/07 12:36:57;;;;;;;0.70;0.40;;;15.10;99.90;;;;;;4918488;29;20418;-73
2022/04/07 12:39:28;;;;;;;0.57;0.30;;;15.10;99.90;;;;;;4916860;29;20694;-72
2022/04/07 12:42:03;;;;;;;0.40;0.33;;;14.80;99.90;;;;;;4918161;29;20280;-73
2022/04/07 12:44:33;;;;;;;2.40;0.40;;;14.70;99.90;;;;;;4918150;29;20829;-73
2022/04/07 12:47:04;;;;;;;0.40;0.40;;;14.70;99.90;;;;;;4918372;29;20465;-74
2022/04/07 12:49:34;;;;;;;2.13;0.40;;;14.80;99.90;;;;;;4918149;29;20432;-73
2022/04/07 12:52:14;;;;;;;1.37;0.30;;;15.00;99.90;;;;;;4917778;29;20465;-74
2022/04/07 12:54:56;;;;;;;4.67;0.50;;;15.10;99.90;;;;;;4918081;29;20422;-74
2022/04/07 12:57:29;;;;;;;0.40;0.40;;;15.10;99.90;;;;;;4917991;29;20424;-73
2022/04/07 12:59:56;;;;;;;1.90;0.40;;;15.20;99.90;;;;;;4918025;29;20436;-73
2022/04/07 13:02:22;;;;;;;0.83;0.40;;;15.00;99.90;;;;;;4917595;29;20485;-73
2022/04/07 13:04:50;;;;;;;1.83;0.40;;;15.00;99.90;;;;;;4917928;29;20423;-73
2022/04/07 13:07:16;;;;;;;1.33;0.40;;;15.10;99.90;;;;;;4917909;29;20501;-73
2022/04/07 13:09:42;;;;;;;1.93;0.40;;;15.00;99.90;;;;;;4917679;29;20493;-73
2022/04/07 13:12:09;;;;;;;0.80;0.40;;;15.10;99.90;;;;;;4917478;29;20828;-72
2022/04/07 13:14:34;;;;;;;0.60;0.30;;;15.00;99.90;;;;;;4917648;29;20222;-72
2022/04/07 13:17:01;;;;;;;1.63;0.40;;;15.00;99.90;;;;;;4916990;29;20422;-73
2022/04/07 13:19:26;;;;;;;0.40;0.30;;;15.00;99.90;;;;;;4917371;29;20206;-73
2022/04/07 13:21:52;;;;;;;1.33;0.40;;;15.00;99.90;;;;;;4917101;29;20473;-73
2022/04/07 13:24:17;;;;;;;0.50;0.40;;;14.90;99.90;;;;;;4917457;29;20702;-73
2022/04/07 13:26:44;;;;;;;0.87;0.40;;;14.90;99.90;;;;;;4917566;29;20585;-73
2022/04/07 13:29:09;;;;;;;1.13;0.40;;;15.00;99.90;;;;;;4917504;29;20652;-73
2022/04/07 13:31:35;;;;;;;0.40;0.30;;;15.00;99.90;;;;;;4916798;29;20484;-73
2022/04/07 13:34:01;;;;;;;1.17;0.40;;;15.20;99.90;;;;;;4917484;29;20178;-73
2022/04/07 13:36:26;;;;;;;0.40;0.40;;;15.30;99.90;;;;;;4917117;29;20201;-73
2022/04/07 13:38:52;;;;;;;0.40;0.30;;;15.30;99.90;;;;;;4917926;29;20414;-73
2022/04/07 13:41:18;;;;;;;0.50;0.30;;;15.30;99.90;;;;;;4916900;29;20617;-73
2022/04/07 13:43:43;;;;;;;2.00;0.30;;;15.20;99.90;;;;;;4917282;29;20185;-73
2022/04/07 13:46:09;;;;;;;0.40;0.30;;;15.10;99.90;;;;;;4917149;29;20256;-73
2022/04/07 13:48:36;;;;;;;0.70;0.30;;;15.10;99.90;;;;;;4917029;29;20182;-73
2022/04/07 13:51:01;;;;;;;1.50;0.40;;;15.10;99.90;;;;;;4916864;29;20682;-73
2022/04/07 13:53:27;;;;;;;1.00;0.40;;;15.30;99.90;;;;;;4916855;29;20442;-73
2022/04/07 13:55:52;;;;;;;0.73;0.53;;;15.30;99.90;;;;;;4917031;29;20647;-73
2022/04/07 13:58:18;;;;;;;0.40;0.30;;;15.40;99.90;;;;;;4915523;29;20178;-73
2022/04/07 14:00:44;;;;;;;5.03;0.40;;;15.40;99.90;;;;;;4916677;29;20186;-73
2022/04/07 14:03:10;;;;;;;1.07;0.30;;;15.30;99.90;;;;;;4916838;29;20178;-73
2022/04/07 14:05:36;;;;;;;3.37;0.47;;;15.20;99.90;;;;;;4916816;29;20978;-73
2022/04/07 14:08:01;;;;;;;1.50;0.40;;;15.00;99.90;;;;;;4916573;29;20444;-73
2022/04/07 14:10:27;;;;;;;0.50;0.40;;;15.10;99.90;;;;;;4916395;29;20202;-72
2022/04/07 14:12:53;;;;;;;0.83;0.40;;;15.10;99.90;;;;;;4916434;29;20194;-73
2022/04/07 14:15:19;;;;;;;1.90;0.50;;;15.10;99.90;;;;;;4916617;29;20261;-73
2022/04/07 14:17:45;;;;;;;4.10;0.40;;;15.20;99.90;;;;;;4916440;29;20506;-73
2022/04/07 14:20:12;;;;;;;0.50;0.40;;;15.20;99.90;;;;;;4916493;29;20507;-73
2022/04/07 14:22:38;;;;;;;0.83;0.40;;;15.20;99.90;;;;;;4915947;29;20501;-73
2022/04/07 14:25:04;;;;;;;0.47;0.40;;;15.40;99.90;;;;;;4916499;29;20414;-73
2022/04/07 14:27:30;;;;;;;0.73;0.40;;;15.50;99.90;;;;;;4916091;29;20853;-73